Sophie Blue — CRXK3 — position and weather

sailwx.info

Track history (hours):
 
Tides and Currents Weather Stations Pressure Air Temp Water Temp Dewpoint Dewpoint Depression Visibility Wind Speed Wind Dir Waves Ship Positions

Sophie Blue

Last reported at 2017-Jul-22 19:54 UTC. Time now 2017-Jul-25 14:55 UTC.
Position N 43°16' E 006°40'.

; draft 2.5 m.

Type: Other ship. MMSI: 255901270.

Date/timePositionNaut miles runAvg speedWind from/ knotsBaromVisibWave heightAir tempDewpointWater temp
2017-Jul-22 19:54N 43°16' E 006°40'2 0.0
2017-Jul-20 19:13N 43°16' E 006°37'0 0.0
2017-Jul-20 18:52N 43°16' E 006°37'0 0.0
2017-Jul-20 18:28N 43°16' E 006°37'0 0.0
2017-Jul-20 17:55N 43°16' E 006°37'0 0.0
2017-Jul-20 17:22N 43°16' E 006°37'0 0.0
2017-Jul-20 16:55N 43°16' E 006°37'0 0.0
2017-Jul-20 15:58N 43°16' E 006°37'0 0.0
2017-Jul-20 15:19N 43°16' E 006°37'0 0.1
2017-Jul-20 14:34N 43°17' E 006°37'710.8
2017-Jul-20 13:57N 43°20' E 006°45'1211.8
2017-Jul-20 12:56N 43°27' E 006°58'511.9
2017-Jul-20 12:30N 43°30' E 007°05'  
2017-Jul-18 05:34N 43°44' E 007°25'0 0.1
2017-Jul-18 05:28N 43°44' E 007°25'0 0.0
2017-Jul-17 16:25N 43°44' E 007°25'0 0.0
2017-Jul-17 15:16N 43°44' E 007°25'0 0.0
2017-Jul-17 14:49N 43°44' E 007°25'0 0.0
2017-Jul-17 12:58N 43°44' E 007°25'  
2017-Jul-14 02:01N 43°42' E 007°21'0 0.0
2017-Jul-14 01:40N 43°42' E 007°21'1 0.2
2017-Jul-13 22:23N 43°41' E 007°21'510.1
2017-Jul-13 21:52N 43°37' E 007°18'410.1
2017-Jul-13 21:30N 43°34' E 007°14'510.3
2017-Jul-13 21:01N 43°31' E 007°09'510.1
2017-Jul-13 20:31N 43°28' E 007°03'5 9.9
2017-Jul-13 20:00N 43°25' E 006°57'5 9.8
2017-Jul-13 19:30N 43°22' E 006°52'  
Track history (hours):
 
Tides and Currents Weather Stations Pressure Air Temp Water Temp Dewpoint Dewpoint Depression Visibility Wind Speed Wind Dir Waves Ship Positions

Sophie Blue

Last reported at 2017-Jul-22 19:54 UTC. Time now 2017-Jul-25 14:55 UTC.
Position N 43°16' E 006°40'.

; draft 2.5 m.

Type: Other ship. MMSI: 255901270.

Date/timePositionNaut miles runAvg speedWind from/ knotsBaromVisibWave heightAir tempDewpointWater temp
2017-Jul-22 19:54N 43°16' E 006°40'2 0.0
2017-Jul-20 19:13N 43°16' E 006°37'0 0.0
2017-Jul-20 18:52N 43°16' E 006°37'0 0.0
2017-Jul-20 18:28N 43°16' E 006°37'0 0.0
2017-Jul-20 17:55N 43°16' E 006°37'0 0.0
2017-Jul-20 17:22N 43°16' E 006°37'0 0.0
2017-Jul-20 16:55N 43°16' E 006°37'0 0.0
2017-Jul-20 15:58N 43°16' E 006°37'0 0.0
2017-Jul-20 15:19N 43°16' E 006°37'0 0.1
2017-Jul-20 14:34N 43°17' E 006°37'710.8
2017-Jul-20 13:57N 43°20' E 006°45'1211.8
2017-Jul-20 12:56N 43°27' E 006°58'511.9
2017-Jul-20 12:30N 43°30' E 007°05'  
2017-Jul-18 05:34N 43°44' E 007°25'0 0.1
2017-Jul-18 05:28N 43°44' E 007°25'0 0.0
2017-Jul-17 16:25N 43°44' E 007°25'0 0.0
2017-Jul-17 15:16N 43°44' E 007°25'0 0.0
2017-Jul-17 14:49N 43°44' E 007°25'0 0.0
2017-Jul-17 12:58N 43°44' E 007°25'  
2017-Jul-14 02:01N 43°42' E 007°21'0 0.0
2017-Jul-14 01:40N 43°42' E 007°21'1 0.2
2017-Jul-13 22:23N 43°41' E 007°21'510.1
2017-Jul-13 21:52N 43°37' E 007°18'410.1
2017-Jul-13 21:30N 43°34' E 007°14'510.3
2017-Jul-13 21:01N 43°31' E 007°09'510.1
2017-Jul-13 20:31N 43°28' E 007°03'5 9.9
2017-Jul-13 20:00N 43°25' E 006°57'5 9.8
2017-Jul-13 19:30N 43°22' E 006°52'  

Dump ship's entire track history